VPBBW EDDM-EDDH
Flight info
| Callsign | VPBBW |
|---|---|
| Flight time | N/A |
| Altitude | 34000 |
| Route | INPUD3Q INPUD Y102 UPALA M726 NARUS DCT ABGUS DCT DIRBO/N0387F230 T902 RARUP RARUP3D |
| Aircraft | B737/M-SDE2E3FGHIRWXY/LB1 |
Departure
| Time | 2026-05-01 15:25 |
|---|---|
| Airport | Munich Airport (EDDM) |
Arrival
| Time | N/A |
|---|---|
| Airport | Hamburg Helmut Schmidt Airport (EDDH) |
| Time | Latitude | Longitude | Altitude | Speed | Heading |
|---|---|---|---|---|---|
| 2026-05-01 15:04 | 48.35790 | 11.80357 | 1474 ft | 0 kts | 173° |
| 2026-05-01 15:08 | 48.35789 | 11.80358 | 1474 ft | 0 kts | 173° |
| 2026-05-01 15:14 | 48.35811 | 11.80357 | 1474 ft | 2 kts | 187° |
| 2026-05-01 15:15 | 48.35836 | 11.80382 | 1476 ft | 2 kts | 256° |
| 2026-05-01 15:15 | 48.35838 | 11.80394 | 1473 ft | 0 kts | 263° |
| 2026-05-01 15:16 | 48.35834 | 11.80351 | 1478 ft | 6 kts | 263° |
| 2026-05-01 15:17 | 48.35864 | 11.80166 | 1484 ft | 11 kts | 264° |
| 2026-05-01 15:18 | 48.35839 | 11.79827 | 1484 ft | 10 kts | 263° |
| 2026-05-01 15:18 | 48.35830 | 11.79721 | 1480 ft | 10 kts | 263° |
| 2026-05-01 15:19 | 48.35907 | 11.79511 | 1475 ft | 11 kts | 353° |
| 2026-05-01 15:19 | 48.36094 | 11.79449 | 1481 ft | 13 kts | 300° |
| 2026-05-01 15:19 | 48.36093 | 11.79316 | 1481 ft | 13 kts | 263° |
| 2026-05-01 15:20 | 48.36063 | 11.78923 | 1471 ft | 24 kts | 263° |
| 2026-05-01 15:20 | 48.36044 | 11.78680 | 1484 ft | 23 kts | 263° |
| 2026-05-01 15:20 | 48.36026 | 11.78447 | 1480 ft | 22 kts | 263° |
| 2026-05-01 15:21 | 48.36009 | 11.78220 | 1484 ft | 21 kts | 263° |
| 2026-05-01 15:21 | 48.35992 | 11.78000 | 1484 ft | 21 kts | 263° |
| 2026-05-01 15:21 | 48.35976 | 11.77789 | 1479 ft | 20 kts | 263° |
| 2026-05-01 15:21 | 48.35960 | 11.77581 | 1474 ft | 20 kts | 263° |
| 2026-05-01 15:22 | 48.35930 | 11.77193 | 1484 ft | 18 kts | 263° |
| 2026-05-01 15:22 | 48.35915 | 11.77003 | 1484 ft | 18 kts | 263° |
| 2026-05-01 15:22 | 48.35964 | 11.76838 | 1480 ft | 17 kts | 332° |
| 2026-05-01 15:23 | 48.36068 | 11.76810 | 1484 ft | 15 kts | 354° |
| 2026-05-01 15:23 | 48.36144 | 11.76798 | 1484 ft | 1 kts | 354° |
| 2026-05-01 15:23 | 48.36145 | 11.76797 | 1484 ft | 0 kts | 354° |
| 2026-05-01 15:23 | 48.36161 | 11.76796 | 1477 ft | 12 kts | 358° |
| 2026-05-01 15:24 | 48.36274 | 11.76882 | 1476 ft | 21 kts | 60° |
| 2026-05-01 15:24 | 48.36306 | 11.77144 | 1484 ft | 49 kts | 82° |
| 2026-05-01 15:24 | 48.36379 | 11.78071 | 1486 ft | 126 kts | 83° |
| 2026-05-01 15:24 | 48.36499 | 11.79637 | 1802 ft | 164 kts | 83° |
| 2026-05-01 15:25 | 48.36611 | 11.81345 | 2792 ft | 166 kts | 85° |
| 2026-05-01 15:25 | 48.36754 | 11.83048 | 3724 ft | 172 kts | 82° |
| 2026-05-01 15:25 | 48.36978 | 11.84990 | 4083 ft | 205 kts | 74° |
| 2026-05-01 15:25 | 48.37833 | 11.86866 | 4417 ft | 234 kts | 39° |
| 2026-05-01 15:26 | 48.39409 | 11.87691 | 5098 ft | 254 kts | 5° |
| 2026-05-01 15:26 | 48.41232 | 11.87170 | 5623 ft | 280 kts | 338° |
| 2026-05-01 15:26 | 48.42700 | 11.85271 | 6775 ft | 282 kts | 311° |
| 2026-05-01 15:26 | 48.43969 | 11.82980 | 7936 ft | 283 kts | 310° |
| 2026-05-01 15:27 | 48.45233 | 11.80683 | 9021 ft | 290 kts | 312° |
| 2026-05-01 15:27 | 48.46531 | 11.78346 | 10199 ft | 291 kts | 313° |
| 2026-05-01 15:27 | 48.47856 | 11.75980 | 11176 ft | 299 kts | 313° |
| 2026-05-01 15:28 | 48.50587 | 11.71129 | 13260 ft | 309 kts | 313° |
| 2026-05-01 15:28 | 48.51977 | 11.68675 | 14355 ft | 313 kts | 314° |
| 2026-05-01 15:28 | 48.53421 | 11.66124 | 15364 ft | 318 kts | 313° |
| 2026-05-01 15:29 | 48.56323 | 11.61022 | 17449 ft | 326 kts | 316° |
| 2026-05-01 15:29 | 48.58143 | 11.58994 | 18309 ft | 331 kts | 338° |
| 2026-05-01 15:29 | 48.62767 | 11.56332 | 19067 ft | 375 kts | 343° |
| 2026-05-01 15:30 | 48.78894 | 11.47072 | 24761 ft | 394 kts | 342° |
| 2026-05-01 15:31 | 49.35611 | 11.20032 | 34315 ft | 444 kts | 7° |
| 2026-05-01 15:31 | 49.41738 | 11.20681 | 34360 ft | 440 kts | 3° |
| 2026-05-01 15:32 | 49.53557 | 11.22153 | 35709 ft | 440 kts | 6° |
| 2026-05-01 15:32 | 49.77752 | 11.22467 | 38643 ft | 434 kts | 0° |
| 2026-05-01 15:33 | 50.02066 | 11.22582 | 40333 ft | 440 kts | 0° |
| 2026-05-01 15:34 | 50.27735 | 11.22721 | 40325 ft | 429 kts | 0° |